Time;durP1;ratioP1;P1;durP2;ratioP2;P2;SDS_P1;SDS_P2;PMS_P1;PMS_P2;Temp;Humidity;BMP_temperature;BMP_pressure;BME280_temperature;BME280_humidity;BME280_pressure;Samples;Min_cycle;Max_cycle;Signal;HPM_P1;HPM_P2
2022/03/23 05:12:43;;;;;;;;;;;;;;;7.85;69.49;98177.00;4240987;27;10356;-60
2022/03/23 05:14:45;;;;;;;;;;;;;;;8.05;65.52;98173.34;4223960;28;5646;-61
2022/03/23 05:16:46;;;;;;;;;;;;;;;8.16;64.61;98181.09;4221640;28;7179;-60
2022/03/23 05:18:48;;;;;;;;;;;;;;;8.22;64.08;98177.03;4236982;27;5613;-61
2022/03/23 05:20:50;;;;;;;;;;;;;;;8.27;63.91;98173.94;4232728;27;5544;-60
2022/03/23 05:22:53;;;;;;;;;;;;;;;8.27;63.98;98174.81;4229571;27;5837;-61
2022/03/23 05:24:54;;;;;;;;;;;;;;;8.30;64.01;98181.59;4230108;28;5631;-61
2022/03/23 05:26:56;;;;;;;;;;;;;;;8.28;63.51;98176.47;4229811;27;5695;-61
2022/03/23 05:28:58;;;;;;;;;;;;;;;8.27;63.74;98180.06;4208431;28;5616;-61
2022/03/23 05:30:59;;;;;;;;;;;;;;;8.21;63.92;98170.09;4229130;28;5624;-61
2022/03/23 05:33:01;;;;;;;;;;;;;;;8.22;63.57;98184.09;4227963;28;7284;-61
2022/03/23 05:35:04;;;;;;;;;;;;;;;8.26;63.35;98172.28;4230783;28;5621;-60
2022/03/23 05:37:06;;;;;;;;;;;;;;;8.27;63.37;98185.34;4229401;28;5621;-60
2022/03/23 05:39:07;;;;;;;;;;;;;;;8.28;63.55;98180.91;4209281;28;5654;-60
2022/03/23 05:41:09;;;;;;;;;;;;;;;8.25;63.50;98186.44;4230263;28;5657;-60
2022/03/23 05:43:11;;;;;;;;;;;;;;;8.26;63.48;98185.47;4228203;27;5537;-60
2022/03/23 05:45:13;;;;;;;;;;;;;;;8.29;63.45;98187.84;4229136;28;6442;-60
2022/03/23 05:47:15;;;;;;;;;;;;;;;8.28;63.85;98184.38;4229482;28;5715;-61
2022/03/23 05:49:16;;;;;;;;;;;;;;;8.30;64.10;98181.59;4229682;27;5681;-61
2022/03/23 05:51:18;;;;;;;;;;;;;;;8.28;63.61;98189.63;4229339;27;5617;-61
2022/03/23 05:53:20;;;;;;;;;;;;;;;8.23;64.55;98183.97;4228948;28;5613;-60
2022/03/23 05:55:21;;;;;;;;;;;;;;;8.23;64.20;98193.66;4208708;28;6467;-61
2022/03/23 05:57:23;;;;;;;;;;;;;;;8.27;64.25;98189.75;4226483;28;5821;-60
2022/03/23 05:59:25;;;;;;;;;;;;;;;8.26;64.32;98185.47;4229727;28;5424;-60
2022/03/23 06:01:26;;;;;;;;;;;;;;;8.26;64.42;98183.66;4227144;28;7709;-60
2022/03/23 06:03:29;;;;;;;;;;;;;;;8.26;64.32;98183.66;4229713;28;5634;-60
2022/03/23 06:05:30;;;;;;;;;;;;;;;8.27;64.75;98189.75;4211053;28;5719;-60
2022/03/23 06:07:34;;;;;;;;;;;;;;;8.27;64.17;98195.03;4215749;28;5735;-60
2022/03/23 06:09:35;;;;;;;;;;;;;;;8.24;64.46;98190.88;4210558;28;5639;-61
2022/03/23 06:11:37;;;;;;;;;;;;;;;8.28;64.19;98192.28;4225921;28;5698;-60
2022/03/23 06:13:38;;;;;;;;;;;;;;;8.20;65.36;98200.06;4217155;28;5778;-61
2022/03/23 06:15:40;;;;;;;;;;;;;;;8.27;65.55;98192.38;4218838;28;6309;-60
2022/03/23 06:17:42;;;;;;;;;;;;;;;8.26;64.96;98198.63;4213989;28;5652;-60
2022/03/23 06:19:44;;;;;;;;;;;;;;;8.34;64.15;98193.47;4217215;28;5836;-61
2022/03/23 06:21:45;;;;;;;;;;;;;;;8.27;66.08;98195.88;4217531;28;5624;-61
2022/03/23 06:23:47;;;;;;;;;;;;;;;8.28;65.01;98196.72;4216329;28;5800;-61
2022/03/23 06:25:48;;;;;;;;;;;;;;;8.30;65.07;98200.84;4206277;28;5686;-62
2022/03/23 06:27:50;;;;;;;;;;;;;;;8.27;65.18;98195.03;4198454;28;5770;-61
2022/03/23 06:29:51;;;;;;;;;;;;;;;8.27;65.18;98190.63;4217610;28;5636;-60
2022/03/23 06:31:53;;;;;;;;;;;;;;;8.27;64.98;98200.28;4213335;28;6543;-59
2022/03/23 06:33:55;;;;;;;;;;;;;;;8.20;65.31;98207.13;4216484;28;5648;-60
2022/03/23 06:35:57;;;;;;;;;;;;;;;8.10;65.46;98205.34;4216191;28;6195;-60
2022/03/23 06:37:59;;;;;;;;;;;;;;;8.17;64.89;98209.09;4212313;28;5751;-60
2022/03/23 06:40:01;;;;;;;;;;;;;;;8.25;64.60;98202.25;4209516;28;5632;-60
2022/03/23 06:42:03;;;;;;;;;;;;;;;8.03;65.94;98209.53;4199554;28;5623;-61
2022/03/23 06:44:05;;;;;;;;;;;;;;;8.12;64.96;98211.31;4218492;28;5604;-60
2022/03/23 06:46:06;;;;;;;;;;;;;;;8.06;65.24;98209.25;4218171;28;6486;-61
2022/03/23 06:48:08;;;;;;;;;;;;;;;8.19;64.98;98206.31;4200076;28;5767;-61
2022/03/23 06:50:10;;;;;;;;;;;;;;;8.23;65.32;98206.84;4217617;28;5612;-60
2022/03/23 06:52:12;;;;;;;;;;;;;;;8.08;64.95;98219.66;4217989;28;5617;-61
2022/03/23 06:54:13;;;;;;;;;;;;;;;8.22;64.26;98215.72;4200302;28;5642;-61
2022/03/23 06:56:15;;;;;;;;;;;;;;;8.26;63.66;98209.19;4216956;28;5665;-61
2022/03/23 06:58:17;;;;;;;;;;;;;;;8.24;63.90;98221.66;4215841;28;5739;-61
2022/03/23 07:00:19;;;;;;;;;;;;;;;8.26;64.06;98214.44;4180102;28;5985;-61
2022/03/23 07:02:20;;;;;;;;;;;;;;;8.13;64.26;98218.22;4198327;28;5644;-61
2022/03/23 07:04:25;;;;;;;;;;;;;;;8.06;64.47;98218.97;4212025;28;5938;-61
2022/03/23 07:06:26;;;;;;;;;;;;;;;8.10;64.42;98225.59;4198994;28;5643;-61
2022/03/23 07:10:49;;;;;;;;;;;;;;;8.08;63.01;98220.47;4202204;28;6456;-60
2022/03/23 07:12:51;;;;;;;;;;;;;;;8.16;62.50;98219.78;4214071;28;5096;-60
2022/03/23 07:14:52;;;;;;;;;;;;;;;8.13;61.90;98226.13;4199360;28;5727;-60
2022/03/23 07:16:54;;;;;;;;;;;;;;;8.01;61.55;98222.00;4198411;28;5737;-60
2022/03/23 07:18:56;;;;;;;;;;;;;;;8.09;61.79;98229.19;4216632;28;5743;-60
2022/03/23 07:21:00;;;;;;;;;;;;;;;7.73;62.82;98229.00;4211882;28;5117;-59
2022/03/23 07:23:02;;;;;;;;;;;;;;;7.96;62.34;98229.50;4201052;28;5980;-59
2022/03/23 07:25:05;;;;;;;;;;;;;;;7.95;61.30;98233.13;4215535;28;6456;-59
2022/03/23 07:27:06;;;;;;;;;;;;;;;7.60;61.54;98233.72;4198692;28;5651;-59
2022/03/23 07:29:20;;;;;;;;;;;;;;;8.00;61.13;98240.59;4216807;28;5909;-60
2022/03/23 07:31:22;;;;;;;;;;;;;;;8.16;60.35;98240.84;4217113;28;5700;-60
2022/03/23 07:33:24;;;;;;;;;;;;;;;8.15;60.39;98244.41;4211401;28;5617;-60
2022/03/23 07:35:26;;;;;;;;;;;;;;;7.97;60.44;98236.44;4217063;28;5616;-60
2022/03/23 07:37:27;;;;;;;;;;;;;;;8.08;60.17;98245.97;4216621;28;5679;-61
2022/03/23 07:39:29;;;;;;;;;;;;;;;8.22;59.37;98245.53;4184373;28;5659;-60
2022/03/23 07:41:31;;;;;;;;;;;;;;;8.12;59.53;98245.53;4202516;28;5782;-60
2022/03/23 07:43:32;;;;;;;;;;;;;;;8.13;59.45;98247.22;4199804;28;5648;-60
2022/03/23 07:45:34;;;;;;;;;;;;;;;8.22;59.28;98245.53;4216475;28;5827;-60
2022/03/23 07:47:38;;;;;;;;;;;;;;;8.26;58.73;98248.69;4216531;28;5131;-60
2022/03/23 07:49:41;;;;;;;;;;;;;;;8.26;58.81;98243.44;4216868;28;5632;-60
2022/03/23 07:51:43;;;;;;;;;;;;;;;8.21;58.32;98245.66;4216747;28;6411;-60
2022/03/23 07:53:45;;;;;;;;;;;;;;;8.27;58.54;98240.69;4200871;28;6311;-60
2022/03/23 07:55:47;;;;;;;;;;;;;;;8.27;58.33;98248.56;4205008;28;5699;-60
2022/03/23 07:57:48;;;;;;;;;;;;;;;8.29;58.12;98248.44;4205418;28;5127;-60
2022/03/23 07:59:50;;;;;;;;;;;;;;;8.33;57.86;98245.34;4189120;28;7721;-60
2022/03/23 08:01:52;;;;;;;;;;;;;;;8.30;57.09;98252.72;4165131;28;5796;-61
2022/03/23 08:03:53;;;;;;;;;;;;;;;8.03;58.33;98254.28;4191333;28;5738;-60
2022/03/23 08:05:58;;;;;;;;;;;;;;;8.24;58.58;98254.09;4216711;28;5687;-61
2022/03/23 08:07:59;;;;;;;;;;;;;;;8.32;58.76;98251.59;4216942;28;6329;-61
2022/03/23 08:10:01;;;;;;;;;;;;;;;8.29;58.93;98245.78;4216154;28;5632;-60
2022/03/23 08:12:03;;;;;;;;;;;;;;;8.05;59.78;98247.09;4214467;28;5100;-61
2022/03/23 08:14:06;;;;;;;;;;;;;;;8.27;58.70;98243.31;4198518;28;7709;-60
2022/03/23 08:16:09;;;;;;;;;;;;;;;8.41;57.85;98244.69;4215483;28;5620;-60
2022/03/23 08:18:15;;;;;;;;;;;;;;;8.21;57.58;98248.31;4215290;28;5815;-60
2022/03/23 08:22:37;;;;;;;;;;;;;;;8.27;58.74;98242.44;4192751;28;5853;-63
2022/03/23 08:24:39;;;;;;;;;;;;;;;8.40;59.40;98253.56;4214698;28;5894;-63
2022/03/23 08:26:40;;;;;;;;;;;;;;;8.17;60.48;98247.78;4215207;28;6535;-63
2022/03/23 08:28:43;;;;;;;;;;;;;;;7.70;61.88;98245.06;4215322;28;5673;-60
2022/03/23 08:30:45;;;;;;;;;;;;;;;8.01;61.40;98247.50;4214918;28;5700;-61
2022/03/23 08:32:47;;;;;;;;;;;;;;;8.29;59.06;98245.78;4213584;28;5827;-62
2022/03/23 08:34:50;;;;;;;;;;;;;;;8.30;58.56;98245.66;4216638;28;5724;-61
2022/03/23 08:36:52;;;;;;;;;;;;;;;8.22;58.17;98249.97;4214356;28;5723;-62
2022/03/23 08:38:53;;;;;;;;;;;;;;;8.38;58.35;98250.22;4211140;28;5617;-60
2022/03/23 08:40:55;;;;;;;;;;;;;;;7.83;58.24;98240.34;4215173;28;5789;-62
2022/03/23 08:42:58;;;;;;;;;;;;;;;7.93;59.15;98242.09;4215489;28;6251;-61
2022/03/23 08:45:00;;;;;;;;;;;;;;;8.28;58.53;98239.69;4197163;28;5636;-61
2022/03/23 08:47:02;;;;;;;;;;;;;;;8.41;58.83;98239.41;4195243;28;5739;-61
2022/03/23 08:49:04;;;;;;;;;;;;;;;8.53;58.03;98243.53;4214271;28;5702;-61
2022/03/23 08:51:06;;;;;;;;;;;;;;;8.49;58.10;98242.13;4209827;28;6598;-62
2022/03/23 08:53:07;;;;;;;;;;;;;;;8.58;57.07;98241.25;4202164;28;5612;-63
2022/03/23 08:55:18;;;;;;;;;;;;;;;8.62;57.02;98241.84;4214491;28;5641;-62
2022/03/23 08:57:22;;;;;;;;;;;;;;;8.58;57.61;98236.00;4209964;28;5608;-62
2022/03/23 08:59:24;;;;;;;;;;;;;;;8.37;58.37;98233.56;4213898;28;6301;-62
2022/03/23 09:01:26;;;;;;;;;;;;;;;8.58;57.63;98230.72;4213320;28;5699;-62
2022/03/23 09:03:28;;;;;;;;;;;;;;;8.34;56.64;98231.22;4206582;28;5267;-62
2022/03/23 09:05:30;;;;;;;;;;;;;;;8.22;57.45;98229.72;4212153;28;5730;-62
2022/03/23 09:07:34;;;;;;;;;;;;;;;8.27;56.82;98231.91;4215305;28;5920;-62
2022/03/23 09:09:42;;;;;;;;;;;;;;;8.48;56.58;98235.19;4214350;28;5767;-61
2022/03/23 09:11:43;;;;;;;;;;;;;;;8.50;57.10;98228.00;4213113;28;5624;-62
2022/03/23 09:13:47;;;;;;;;;;;;;;;8.72;56.95;98224.13;4214260;28;5707;-62
2022/03/23 09:15:49;;;;;;;;;;;;;;;8.79;56.78;98227.84;4212125;28;6477;-62
2022/03/23 09:17:50;;;;;;;;;;;;;;;8.78;56.76;98225.38;4215541;28;5605;-62
2022/03/23 09:19:55;;;;;;;;;;;;;;;8.81;56.58;98230.34;4214994;28;5723;-60
2022/03/23 09:21:59;;;;;;;;;;;;;;;8.80;57.02;98228.69;4216281;28;5628;-62
2022/03/23 09:24:02;;;;;;;;;;;;;;;8.81;57.44;98219.78;4212017;28;6366;-61
2022/03/23 09:26:09;;;;;;;;;;;;;;;8.64;57.08;98219.63;4213536;28;5092;-60
2022/03/23 09:28:11;;;;;;;;;;;;;;;8.93;56.42;98219.44;4214453;28;5616;-59
2022/03/23 09:30:14;;;;;;;;;;;;;;;9.10;56.38;98220.47;4214251;28;5668;-63
2022/03/23 09:32:17;;;;;;;;;;;;;;;9.02;56.27;98215.09;4207294;28;5657;-60
2022/03/23 09:34:20;;;;;;;;;;;;;;;9.06;55.97;98213.84;4215192;28;5747;-60
2022/03/23 09:37:47;;;;;;;;;;;;;;;9.01;55.66;98226.63;4213784;28;5755;-63
2022/03/23 09:38:43;;;;;;;;;;;;;;;9.16;55.84;98217.22;4210411;28;5624;-61
2022/03/23 09:40:52;;;;;;;;;;;;;;;8.87;55.98;98212.13;4215638;28;5695;-61
2022/03/23 09:42:58;;;;;;;;;;;;;;;9.01;55.47;98216.91;4214431;28;5652;-59
2022/03/23 09:45:00;;;;;;;;;;;;;;;9.11;55.57;98214.19;4215307;28;5649;-61
2022/03/23 09:47:04;;;;;;;;;;;;;;;9.10;55.19;98209.91;4215741;28;5636;-58
2022/03/23 09:49:08;;;;;;;;;;;;;;;8.96;55.02;98215.69;4217603;28;5767;-59
2022/03/23 09:51:11;;;;;;;;;;;;;;;9.14;53.91;98220.97;4218805;28;5620;-61
2022/03/23 09:53:13;;;;;;;;;;;;;;;9.11;51.75;98211.56;4218241;28;6278;-61
2022/03/23 09:55:15;;;;;;;;;;;;;;;9.15;51.96;98217.38;4214373;28;5715;-62
2022/03/23 09:57:17;;;;;;;;;;;;;;;9.26;52.76;98212.69;4202457;28;5635;-60
2022/03/23 09:59:18;;;;;;;;;;;;;;;9.29;51.07;98215.06;4217670;28;5739;-62
2022/03/23 10:01:30;;;;;;;;;;;;;;;9.13;50.92;98219.31;4217166;28;5936;-61
2022/03/23 10:04:26;;;;;;;;;;;;;;;9.29;50.81;98211.59;4197562;28;6328;-62
2022/03/23 10:06:51;;;;;;;;;;;;;;;9.36;50.90;98212.63;4217646;28;5732;-60
2022/03/23 10:09:23;;;;;;;;;;;;;;;9.42;50.55;98211.22;4198877;28;5628;-58
2022/03/23 10:11:49;;;;;;;;;;;;;;;9.42;51.54;98204.13;4207979;28;5699;-60
2022/03/23 10:14:28;;;;;;;;;;;;;;;9.66;50.78;98202.66;4217175;28;5685;-59
2022/03/23 10:17:10;;;;;;;;;;;;;;;9.76;51.12;98201.59;4194617;28;5651;-60
2022/03/23 10:19:13;;;;;;;;;;;;;;;9.85;50.34;98202.47;4217887;28;5648;-60
2022/03/23 10:21:19;;;;;;;;;;;;;;;9.90;50.03;98192.28;4200833;28;5642;-60
2022/03/23 10:23:21;;;;;;;;;;;;;;;9.84;49.98;98185.78;4211249;28;5694;-61
2022/03/23 10:25:27;;;;;;;;;;;;;;;9.91;50.13;98189.47;4213496;28;5620;-60
2022/03/23 10:27:31;;;;;;;;;;;;;;;9.87;50.30;98189.97;4218294;28;5619;-61
2022/03/23 10:29:39;;;;;;;;;;;;;;;9.85;51.27;98186.63;4216446;28;5624;-62
2022/03/23 10:31:41;;;;;;;;;;;;;;;9.90;51.60;98187.81;4201952;28;5694;-62
2022/03/23 10:33:45;;;;;;;;;;;;;;;9.93;52.25;98184.03;4215346;28;6592;-61
2022/03/23 10:35:47;;;;;;;;;;;;;;;10.00;51.49;98181.63;4218162;28;6822;-60
2022/03/23 10:37:48;;;;;;;;;;;;;;;9.89;51.93;98175.59;4218010;28;5609;-65
2022/03/23 10:39:51;;;;;;;;;;;;;;;9.79;51.88;98180.16;4217584;28;6321;-61
2022/03/23 10:42:00;;;;;;;;;;;;;;;9.37;54.50;98182.63;4209731;28;5552;-62
2022/03/23 10:44:02;;;;;;;;;;;;;;;9.30;54.01;98177.13;4204432;28;5822;-63
2022/03/23 10:46:11;;;;;;;;;;;;;;;9.20;52.98;98179.00;4218227;28;5616;-62
2022/03/23 10:48:17;;;;;;;;;;;;;;;9.44;53.27;98172.28;4216731;28;5632;-62
2022/03/23 10:50:21;;;;;;;;;;;;;;;9.69;52.06;98178.59;4218216;28;5683;-62
2022/03/23 10:52:27;;;;;;;;;;;;;;;9.71;52.24;98166.06;4210704;28;5667;-62
2022/03/23 10:54:29;;;;;;;;;;;;;;;9.87;52.66;98169.66;4213669;28;5675;-63
2022/03/23 10:56:36;;;;;;;;;;;;;;;9.86;51.62;98168.00;4216937;28;5641;-65
2022/03/23 10:58:38;;;;;;;;;;;;;;;9.84;52.05;98159.38;4201672;28;5643;-60
2022/03/23 11:00:40;;;;;;;;;;;;;;;9.89;51.15;98162.41;4212721;28;5790;-62
2022/03/23 11:02:49;;;;;;;;;;;;;;;9.95;50.79;98160.94;4199109;28;5635;-63
2022/03/23 11:04:53;;;;;;;;;;;;;;;9.96;49.58;98156.47;4217797;28;5620;-62
2022/03/23 11:06:57;;;;;;;;;;;;;;;10.00;49.72;98145.47;4217991;28;5724;-59
2022/03/23 11:15:46;;;;;;;;;;;;;;;10.07;49.38;98148.28;4217387;28;5690;-59
2022/03/23 11:16:06;;;;;;;;;;;;;;;10.28;48.90;98146.13;4201750;28;5678;-62
2022/03/23 11:18:13;;;;;;;;;;;;;;;10.29;48.94;98134.56;4217532;28;5700;-62
2022/03/23 11:20:17;;;;;;;;;;;;;;;10.26;47.48;98142.81;4206694;28;6181;-64
2022/03/23 11:22:19;;;;;;;;;;;;;;;10.34;47.89;98142.03;4205751;28;5651;-61
2022/03/23 11:24:21;;;;;;;;;;;;;;;10.36;47.46;98140.88;4200654;28;5690;-61
2022/03/23 11:26:23;;;;;;;;;;;;;;;10.30;47.55;98138.03;4217233;28;5672;-61
2022/03/23 11:28:28;;;;;;;;;;;;;;;10.30;47.44;98135.38;4208645;28;5857;-61
2022/03/23 11:30:32;;;;;;;;;;;;;;;10.39;48.38;98124.69;4213969;28;5612;-60
2022/03/23 11:32:37;;;;;;;;;;;;;;;10.56;46.12;98124.75;4213698;28;5624;-60
2022/03/23 11:34:40;;;;;;;;;;;;;;;10.46;46.44;98125.72;4199621;28;6309;-60
2022/03/23 11:36:42;;;;;;;;;;;;;;;10.24;46.37;98126.28;4210862;28;5749;-60
2022/03/23 11:38:47;;;;;;;;;;;;;;;10.40;46.74;98121.06;4193308;28;6526;-61
2022/03/23 11:40:52;;;;;;;;;;;;;;;10.52;47.42;98111.00;4206970;28;5698;-61
2022/03/23 11:42:54;;;;;;;;;;;;;;;10.41;47.19;98122.72;4209384;28;5627;-60
2022/03/23 11:44:56;;;;;;;;;;;;;;;10.58;47.04;98114.84;4217419;28;5616;-60
2022/03/23 11:47:06;;;;;;;;;;;;;;;10.50;46.61;98116.47;4199327;28;5628;-60
2022/03/23 11:49:28;;;;;;;;;;;;;;;10.59;46.29;98100.63;4217318;28;5794;-60
2022/03/23 11:51:54;;;;;;;;;;;;;;;10.66;45.12;98101.66;4217477;28;5672;-61
2022/03/23 11:54:14;;;;;;;;;;;;;;;10.57;45.42;98092.03;4217505;28;5974;-61
2022/03/23 11:56:58;;;;;;;;;;;;;;;10.77;45.93;98093.41;4214444;28;5084;-61
2022/03/23 11:59:23;;;;;;;;;;;;;;;10.92;45.99;98083.84;4170673;28;5779;-60
2022/03/23 12:01:31;;;;;;;;;;;;;;;10.99;44.61;98082.19;4210182;28;5780;-62
2022/03/23 12:03:50;;;;;;;;;;;;;;;10.76;44.18;98086.47;4217046;28;5613;-62
2022/03/23 12:05:52;;;;;;;;;;;;;;;10.74;45.96;98083.13;4216939;28;5642;-61
2022/03/23 12:07:53;;;;;;;;;;;;;;;10.90;45.65;98077.06;4198988;28;5628;-61
2022/03/23 12:10:20;;;;;;;;;;;;;;;10.97;45.04;98070.94;4199186;28;5760;-61
2022/03/23 12:12:29;;;;;;;;;;;;;;;10.81;44.75;98068.28;4200335;28;5639;-61
2022/03/23 12:14:36;;;;;;;;;;;;;;;11.06;45.59;98075.25;4200334;28;5927;-61
2022/03/23 12:16:50;;;;;;;;;;;;;;;11.13;44.40;98064.84;4205016;28;5855;-61
2022/03/23 12:19:17;;;;;;;;;;;;;;;11.24;44.14;98066.31;4217235;28;5609;-61
2022/03/23 12:21:25;;;;;;;;;;;;;;;11.30;44.37;98063.00;4216847;28;5616;-61
2022/03/23 12:23:43;;;;;;;;;;;;;;;11.40;44.82;98055.72;4216538;28;5609;-61
2022/03/23 12:26:03;;;;;;;;;;;;;;;11.38;44.42;98047.09;4216939;28;5763;-61
2022/03/23 12:28:28;;;;;;;;;;;;;;;11.48;44.58;98047.75;4216889;28;5735;-61
2022/03/23 12:30:29;;;;;;;;;;;;;;;11.50;44.26;98040.47;4197036;28;5659;-59
2022/03/23 12:32:38;;;;;;;;;;;;;;;11.36;43.02;98049.09;4197113;28;5667;-62
2022/03/23 12:34:44;;;;;;;;;;;;;;;11.40;43.10;98034.53;4215965;28;5660;-60
2022/03/23 12:36:56;;;;;;;;;;;;;;;11.28;42.58;98035.88;4208874;28;5800;-61
2022/03/23 12:38:59;;;;;;;;;;;;;;;11.42;43.04;98032.53;4213573;28;5722;-61
2022/03/23 12:41:08;;;;;;;;;;;;;;;11.55;44.40;98035.50;4216358;28;5860;-59
2022/03/23 12:43:32;;;;;;;;;;;;;;;11.60;46.00;98030.53;4216729;28;5616;-60
2022/03/23 12:45:37;;;;;;;;;;;;;;;11.74;44.71;98033.47;4215502;28;5747;-60
2022/03/23 12:47:50;;;;;;;;;;;;;;;11.86;43.57;98024.19;4216696;28;5621;-62
2022/03/23 12:59:35;;;;;;;;;;;;;;;11.80;41.30;98024.88;4206455;28;5638;-59
2022/03/23 13:01:38;;;;;;;;;;;;;;;11.43;41.27;98017.47;4215913;28;5770;-62
2022/03/23 13:03:42;;;;;;;;;;;;;;;11.75;42.54;98016.56;4214122;28;5695;-60
2022/03/23 13:05:59;;;;;;;;;;;;;;;11.90;41.33;98010.44;4211829;28;5711;-60
2022/03/23 13:08:21;;;;;;;;;;;;;;;11.91;42.23;98011.25;4215761;28;5845;-62
2022/03/23 13:10:24;;;;;;;;;;;;;;;11.97;42.32;98004.44;4214877;28;5616;-61
2022/03/23 13:12:27;;;;;;;;;;;;;;;12.04;43.23;98011.53;4215118;28;6138;-62
2022/03/23 13:14:28;;;;;;;;;;;;;;;12.05;43.01;97997.28;4214419;28;6162;-61
2022/03/23 13:16:35;;;;;;;;;;;;;;;12.10;42.98;97997.56;4206295;28;5834;-61
2022/03/23 13:18:44;;;;;;;;;;;;;;;12.12;40.92;98000.06;4196181;28;5722;-61
2022/03/23 13:20:51;;;;;;;;;;;;;;;12.26;42.58;97993.19;4213886;28;5620;-60
2022/03/23 13:22:53;;;;;;;;;;;;;;;12.12;42.09;97987.63;4213229;28;5823;-61
2022/03/23 13:25:04;;;;;;;;;;;;;;;11.80;42.80;97983.31;4218149;28;5731;-61
2022/03/23 13:27:13;;;;;;;;;;;;;;;11.98;43.24;97985.69;4203128;28;5535;-61
2022/03/23 13:29:15;;;;;;;;;;;;;;;12.10;42.67;97968.41;4203083;28;5635;-61
2022/03/23 13:31:42;;;;;;;;;;;;;;;12.28;42.27;97978.75;4202573;28;5760;-61
2022/03/23 13:33:47;;;;;;;;;;;;;;;12.33;43.01;97971.09;4218418;28;5766;-61
2022/03/23 13:35:50;;;;;;;;;;;;;;;12.46;43.71;97965.22;4219797;28;5673;-61
2022/03/23 13:38:04;;;;;;;;;;;;;;;12.53;43.71;97959.03;4218230;28;5807;-61
2022/03/23 13:40:10;;;;;;;;;;;;;;;12.64;43.91;97960.44;4219854;28;5680;-61
2022/03/23 13:46:53;;;;;;;;;;;;;;;12.73;43.19;97956.72;4219655;28;5680;-61
2022/03/23 13:49:03;;;;;;;;;;;;;;;12.81;42.81;97959.31;4219248;28;5755;-61
2022/03/23 13:51:05;;;;;;;;;;;;;;;12.75;42.61;97956.53;4214637;28;5897;-60
2022/03/23 13:53:07;;;;;;;;;;;;;;;12.86;42.62;97950.00;4200397;28;5722;-61
2022/03/23 13:55:09;;;;;;;;;;;;;;;12.79;42.76;97948.03;4202434;28;5651;-60
2022/03/23 13:57:11;;;;;;;;;;;;;;;12.88;43.08;97945.31;4202524;28;5750;-61
2022/03/23 13:59:16;;;;;;;;;;;;;;;12.94;41.83;97944.63;4202480;28;6353;-61
2022/03/23 14:01:18;;;;;;;;;;;;;;;12.91;41.67;97944.94;4202050;28;6376;-61
2022/03/23 14:03:31;;;;;;;;;;;;;;;12.96;41.93;97942.59;4201898;28;5690;-60
2022/03/23 14:05:35;;;;;;;;;;;;;;;12.91;41.17;97937.84;4202597;28;5718;-61
2022/03/23 14:07:36;;;;;;;;;;;;;;;12.92;42.01;97930.72;4202587;28;5784;-61
2022/03/23 14:09:40;;;;;;;;;;;;;;;13.03;42.22;97932.94;4198456;28;5738;-61
2022/03/23 14:11:47;;;;;;;;;;;;;;;12.98;41.41;97928.13;4207455;28;5743;-61
2022/03/23 14:13:52;;;;;;;;;;;;;;;13.09;41.89;97930.34;4200427;28;5627;-61
2022/03/23 14:15:57;;;;;;;;;;;;;;;13.12;41.27;97929.16;4218760;28;5748;-61
2022/03/23 14:17:59;;;;;;;;;;;;;;;13.06;41.66;97921.94;4218381;28;5689;-61
2022/03/23 14:20:04;;;;;;;;;;;;;;;13.16;41.57;97919.03;4217286;28;5668;-60
2022/03/23 14:22:09;;;;;;;;;;;;;;;13.25;42.05;97917.94;4214814;28;5687;-61
2022/03/23 14:24:11;;;;;;;;;;;;;;;13.19;42.31;97922.16;4217765;28;5097;-61
2022/03/23 14:26:32;;;;;;;;;;;;;;;13.29;42.47;97916.59;4218129;28;5645;-59
2022/03/23 14:28:45;;;;;;;;;;;;;;;13.32;42.29;97909.06;4219102;28;5611;-60
2022/03/23 14:30:49;;;;;;;;;;;;;;;13.37;42.23;97913.84;4218395;28;5639;-61
2022/03/23 14:32:50;;;;;;;;;;;;;;;13.35;42.80;97906.03;4196249;28;5663;-61
2022/03/23 14:34:53;;;;;;;;;;;;;;;13.38;42.93;97910.19;4183469;28;5654;-61
2022/03/23 14:37:16;;;;;;;;;;;;;;;13.23;43.20;97912.81;4217861;28;5632;-61
2022/03/23 14:39:20;;;;;;;;;;;;;;;13.30;43.02;97911.09;4199622;28;5711;-61
2022/03/23 14:41:22;;;;;;;;;;;;;;;13.37;43.14;97903.22;4218229;28;5982;-61
2022/03/23 14:43:29;;;;;;;;;;;;;;;13.30;42.57;97908.44;4215513;28;5712;-68
2022/03/23 14:45:33;;;;;;;;;;;;;;;13.17;43.44;97899.44;4214785;28;5656;-69
2022/03/23 14:47:48;;;;;;;;;;;;;;;13.32;42.96;97900.28;4215157;28;5617;-66
2022/03/23 14:49:50;;;;;;;;;;;;;;;13.33;43.14;97894.78;4217793;28;5835;-66
2022/03/23 14:51:53;;;;;;;;;;;;;;;13.36;43.08;97890.91;4217609;28;5827;-67
2022/03/23 14:53:55;;;;;;;;;;;;;;;13.32;43.63;97901.09;4217095;28;5802;-67
2022/03/23 14:55:58;;;;;;;;;;;;;;;13.20;43.27;97897.25;4217315;28;5807;-67
2022/03/23 14:58:01;;;;;;;;;;;;;;;13.24;43.28;97901.19;4204800;28;6416;-67
2022/03/23 15:00:05;;;;;;;;;;;;;;;13.28;43.14;97891.03;4214040;28;5771;-66
2022/03/23 15:02:07;;;;;;;;;;;;;;;13.31;43.42;97888.81;4213333;28;5640;-76
2022/03/23 15:04:10;;;;;;;;;;;;;;;13.30;43.08;97895.16;4214726;28;5104;-74
2022/03/23 15:13:17;;;;;;;;;;;;;;;13.45;43.28;97881.84;4206449;28;5743;-60
2022/03/23 15:15:20;;;;;;;;;;;;;;;13.48;43.45;97883.31;4199902;28;5643;-60
2022/03/23 15:17:25;;;;;;;;;;;;;;;13.50;43.69;97876.81;4207706;28;5928;-60
2022/03/23 15:19:27;;;;;;;;;;;;;;;13.48;43.43;97873.53;4209215;28;5617;-59
2022/03/23 15:21:29;;;;;;;;;;;;;;;13.44;43.31;97864.28;4218051;28;5639;-59
2022/03/23 15:23:31;;;;;;;;;;;;;;;13.43;43.49;97872.44;4212406;28;5656;-59
2022/03/23 15:25:33;;;;;;;;;;;;;;;13.48;43.94;97867.38;4218041;28;5624;-59
2022/03/23 15:27:34;;;;;;;;;;;;;;;13.51;43.77;97862.53;4217947;28;5707;-59
2022/03/23 15:29:36;;;;;;;;;;;;;;;13.55;43.83;97857.66;4217651;28;5632;-60
2022/03/23 15:31:38;;;;;;;;;;;;;;;13.54;43.39;97862.16;4217595;28;5612;-59
2022/03/23 15:33:44;;;;;;;;;;;;;;;13.63;43.67;97858.38;4214899;28;5833;-59
2022/03/23 15:35:46;;;;;;;;;;;;;;;13.67;44.13;97864.97;4200183;28;5652;-58
2022/03/23 15:37:49;;;;;;;;;;;;;;;13.64;43.91;97861.88;4217724;28;5620;-59
2022/03/23 15:39:51;;;;;;;;;;;;;;;13.72;44.19;97853.78;4216118;28;5602;-59
2022/03/23 15:41:53;;;;;;;;;;;;;;;13.73;44.21;97855.44;4212860;28;5764;-60
2022/03/23 15:43:56;;;;;;;;;;;;;;;13.77;44.04;97861.19;4212170;28;5800;-59
2022/03/23 15:45:58;;;;;;;;;;;;;;;13.77;43.47;97856.69;4208360;28;5696;-58
2022/03/23 15:48:00;;;;;;;;;;;;;;;13.77;43.99;97856.69;4199200;28;5667;-59
2022/03/23 15:50:02;;;;;;;;;;;;;;;13.79;43.81;97854.66;4217553;28;5679;-59
2022/03/23 15:52:05;;;;;;;;;;;;;;;13.81;43.73;97859.78;4217705;28;6278;-59
2022/03/23 15:54:07;;;;;;;;;;;;;;;13.76;43.95;97854.22;4217544;28;5613;-58
2022/03/23 15:56:09;;;;;;;;;;;;;;;13.75;44.04;97853.41;4217453;28;5633;-59
2022/03/23 15:58:11;;;;;;;;;;;;;;;13.77;44.14;97854.03;4217297;28;5634;-59
2022/03/23 16:00:13;;;;;;;;;;;;;;;13.80;44.60;97850.19;4217789;28;5683;-59
2022/03/23 16:02:15;;;;;;;;;;;;;;;13.77;46.33;97848.72;4197686;28;5998;-60
2022/03/23 16:04:18;;;;;;;;;;;;;;;13.71;47.26;97846.84;4202627;28;5077;-58
2022/03/23 16:06:20;;;;;;;;;;;;;;;13.58;46.14;97847.47;4217351;28;7689;-58
2022/03/23 16:08:22;;;;;;;;;;;;;;;13.70;45.80;97850.47;4217106;28;5672;-59
2022/03/23 16:10:26;;;;;;;;;;;;;;;13.69;46.31;97838.19;4217148;28;6434;-61
2022/03/23 16:12:27;;;;;;;;;;;;;;;13.55;46.99;97847.03;4211737;28;7845;-60
2022/03/23 16:14:29;;;;;;;;;;;;;;;13.61;48.61;97846.31;4211985;28;5605;-59
2022/03/23 16:16:31;;;;;;;;;;;;;;;13.57;50.74;97845.00;4214133;28;5775;-60
2022/03/23 16:18:33;;;;;;;;;;;;;;;13.46;53.44;97842.84;4220807;28;5614;-60
2022/03/23 16:20:35;;;;;;;;;;;;;;;13.39;54.21;97843.59;4221010;28;5840;-61
2022/03/23 16:22:39;;;;;;;;;;;;;;;13.34;54.64;97845.97;4216813;28;5778;-61
2022/03/23 16:24:40;;;;;;;;;;;;;;;13.17;56.15;97848.97;4211697;28;5729;-59
2022/03/23 16:26:42;;;;;;;;;;;;;;;13.06;55.46;97845.78;4217061;28;5680;-61
2022/03/23 16:28:44;;;;;;;;;;;;;;;13.18;56.32;97843.47;4199176;28;5646;-61
2022/03/23 16:30:46;;;;;;;;;;;;;;;13.15;57.34;97854.47;4216814;28;5636;-61
2022/03/23 16:32:52;;;;;;;;;;;;;;;13.06;56.52;97855.56;4195711;28;5767;-60
2022/03/23 16:34:54;;;;;;;;;;;;;;;12.92;57.07;97851.09;4212195;28;5624;-60
2022/03/23 16:36:58;;;;;;;;;;;;;;;12.69;57.84;97851.16;4207557;28;5705;-60
2022/03/23 16:39:00;;;;;;;;;;;;;;;12.90;56.16;97850.41;4208214;28;5612;-60
2022/03/23 16:43:22;;;;;;;;;;;;;;;13.20;55.01;97849.47;4201126;28;5747;-60
2022/03/23 16:45:25;;;;;;;;;;;;;;;13.11;54.46;97853.19;4204242;28;5881;-60
2022/03/23 16:47:28;;;;;;;;;;;;;;;13.20;54.42;97859.25;4201795;28;5697;-58
2022/03/23 16:49:31;;;;;;;;;;;;;;;13.19;54.21;97854.94;4207175;28;5617;-60